createdAt,value
2022-11-24T00:01:00.849Z,90.94
2022-11-24T00:02:01.612Z,91.23
2022-11-24T00:03:01.716Z,91.13
2022-11-24T00:04:01.625Z,90.85
2022-11-24T00:05:02.814Z,92.18
2022-11-24T00:06:02.733Z,92.18
2022-11-24T00:07:03.026Z,93.04
2022-11-24T00:08:04.058Z,93.6
2022-11-24T00:09:04.384Z,93.41
2022-11-24T00:10:04.570Z,93.32
2022-11-24T00:11:04.475Z,93.32
2022-11-24T00:12:05.398Z,94.08
2022-11-24T00:13:06.071Z,93.89
2022-11-24T00:14:06.948Z,93.79
2022-11-24T00:15:07.132Z,94.18
2022-11-24T00:16:07.462Z,93.51
2022-11-24T00:17:09.029Z,93.13
2022-11-24T00:18:09.328Z,93.99
2022-11-24T00:19:10.040Z,94.27
2022-11-24T00:20:10.692Z,94.27
2022-11-24T00:21:11.592Z,93.79
2022-11-24T00:22:12.843Z,93.99
2022-11-24T00:23:12.761Z,93.89
2022-11-24T00:24:12.950Z,94.18
2022-11-24T00:25:13.289Z,93.99
2022-11-24T00:26:13.625Z,94.27
2022-11-24T00:27:13.818Z,94.18
2022-11-24T00:28:14.032Z,94.18
2022-11-24T00:29:15.308Z,94.46
2022-11-24T00:30:15.944Z,94.08
2022-11-24T00:31:22.279Z,94.18
2022-11-24T00:32:16.847Z,94.56
2022-11-24T00:33:17.049Z,94.93
2022-11-24T00:34:17.240Z,94.56
2022-11-24T00:35:18.483Z,95.22
2022-11-24T00:36:18.800Z,95.51
2022-11-24T00:37:19.336Z,96.08
2022-11-24T00:38:19.221Z,97.03
2022-11-24T00:39:20.241Z,96.93
2022-11-24T00:40:21.183Z,97.97
2022-11-24T00:41:21.822Z,97.97
2022-11-24T00:42:22.455Z,98.83
2022-11-24T00:43:22.387Z,99.21
2022-11-24T00:44:23.290Z,99.3
2022-11-24T00:45:23.544Z,99.97
2022-11-24T00:46:24.702Z,99.97
2022-11-24T00:47:25.489Z,99.99
2022-11-24T00:48:25.799Z,99.99
2022-11-24T00:49:26.356Z,99.99
2022-11-24T00:50:27.269Z,99.99
2022-11-24T00:51:27.894Z,99.99
2022-11-24T00:52:29.172Z,99.99
2022-11-24T00:53:29.988Z,99.99
2022-11-24T00:54:30.503Z,99.99
2022-11-24T00:55:30.987Z,99.99
2022-11-24T00:56:31.347Z,99.99
2022-11-24T00:57:31.659Z,99.99
2022-11-24T00:58:31.895Z,99.99
2022-11-24T00:59:32.903Z,99.99
2022-11-24T01:00:33.222Z,99.99
2022-11-24T01:01:34.004Z,99.99
2022-11-24T01:02:34.572Z,99.99
2022-11-24T01:03:34.983Z,99.99
2022-11-24T01:04:36.139Z,99.99
2022-11-24T01:05:36.697Z,99.99
2022-11-24T01:06:37.591Z,99.99
2022-11-24T01:07:37.975Z,99.99
2022-11-24T01:08:38.117Z,99.99
2022-11-24T01:09:38.527Z,99.99
2022-11-24T01:10:39.438Z,99.99
2022-11-24T01:11:40.652Z,99.99
2022-11-24T01:12:41.560Z,99.99
2022-11-24T01:13:42.200Z,99.99
2022-11-24T01:14:43.103Z,99.99
2022-11-24T01:15:43.384Z,99.99
2022-11-24T01:16:43.468Z,99.99
2022-11-24T01:17:43.975Z,99.99
2022-11-24T01:18:44.184Z,99.99
2022-11-24T01:19:44.953Z,99.99
2022-11-24T01:20:46.153Z,99.99
2022-11-24T01:21:46.340Z,99.99
2022-11-24T01:22:46.912Z,99.99
2022-11-24T01:23:47.543Z,99.99
2022-11-24T01:24:48.430Z,99.99
2022-11-24T01:25:48.622Z,99.99
2022-11-24T01:26:49.550Z,99.99
2022-11-24T01:27:50.181Z,99.99
2022-11-24T01:28:53.179Z,99.99
2022-11-24T01:29:50.868Z,99.99
2022-11-24T01:30:52.056Z,99.99
2022-11-24T01:31:52.300Z,99.99
2022-11-24T01:32:53.222Z,99.99
2022-11-24T01:33:53.712Z,99.99
2022-11-24T01:34:54.202Z,99.99
2022-11-24T01:35:54.694Z,99.99
2022-11-24T01:36:55.603Z,99.99
2022-11-24T01:37:56.137Z,99.99
2022-11-24T01:38:56.350Z,99.99
2022-11-24T01:39:56.943Z,99.99
2022-11-24T01:40:57.572Z,99.99
2022-11-24T01:41:58.208Z,99.99
2022-11-24T01:42:59.099Z,99.99
2022-11-24T01:43:59.039Z,99.99
2022-11-24T01:45:00.242Z,99.99
2022-11-24T01:46:01.223Z,99.99
2022-11-24T01:47:01.729Z,99.99
2022-11-24T01:48:02.782Z,99.99
2022-11-24T01:49:02.886Z,99.99
2022-11-24T01:50:04.212Z,99.99
2022-11-24T01:51:04.123Z,99.99
2022-11-24T01:52:05.325Z,99.99
2022-11-24T01:53:05.601Z,99.99
2022-11-24T01:54:06.615Z,99.99
2022-11-24T01:55:07.525Z,99.99
2022-11-24T01:56:08.139Z,99.99
2022-11-24T01:57:09.040Z,99.99
2022-11-24T01:58:10.081Z,99.99
2022-11-24T01:59:10.729Z,99.99
2022-11-24T02:00:11.014Z,99.99
2022-11-24T02:01:11.363Z,99.99
2022-11-24T02:02:11.964Z,99.99
2022-11-24T02:03:12.380Z,99.99
2022-11-24T02:04:12.586Z,99.99
2022-11-24T02:05:12.641Z,99.99
2022-11-24T02:06:13.846Z,99.99
2022-11-24T02:07:14.583Z,99.99
2022-11-24T02:08:15.016Z,99.99
2022-11-24T02:09:15.749Z,99.99
2022-11-24T02:10:16.202Z,99.99
2022-11-24T02:11:17.099Z,99.99
2022-11-24T02:12:17.421Z,99.99
2022-11-24T02:13:18.627Z,99.99
2022-11-24T02:14:19.294Z,99.99
2022-11-24T02:15:19.753Z,99.99
2022-11-24T02:16:20.267Z,99.99
2022-11-24T02:17:20.631Z,99.99
2022-11-24T02:18:21.860Z,99.99
2022-11-24T02:19:22.051Z,99.99
2022-11-24T02:20:22.057Z,99.99
2022-11-24T02:21:22.669Z,99.99
2022-11-24T02:22:23.278Z,99.99
2022-11-24T02:23:23.810Z,99.99
2022-11-24T02:24:24.726Z,99.99
2022-11-24T02:25:25.665Z,99.99
2022-11-24T02:26:26.577Z,99.99
2022-11-24T02:27:26.916Z,99.99
2022-11-24T02:28:27.532Z,99.99
2022-11-24T02:29:28.452Z,99.99
2022-11-24T02:30:28.889Z,99.99
2022-11-24T02:31:29.600Z,99.99
2022-11-24T02:32:30.118Z,99.99
2022-11-24T02:33:30.621Z,99.99
2022-11-24T02:34:30.537Z,99.99
2022-11-24T02:35:31.621Z,99.99
2022-11-24T02:36:32.237Z,99.99
2022-11-24T02:37:32.851Z,99.99
2022-11-24T02:38:34.110Z,99.99
2022-11-24T02:39:34.381Z,99.99
2022-11-24T02:40:35.464Z,99.99
2022-11-24T02:41:36.382Z,99.99
2022-11-24T02:42:37.328Z,99.99
2022-11-24T02:43:38.232Z,99.99
2022-11-24T02:44:39.384Z,99.99
2022-11-24T02:45:39.583Z,99.99
2022-11-24T02:46:39.916Z,99.99
2022-11-24T02:47:40.644Z,99.99
2022-11-24T02:48:41.870Z,99.99
2022-11-24T02:49:42.056Z,99.99
2022-11-24T02:50:42.021Z,99.99
2022-11-24T02:51:42.922Z,99.99
2022-11-24T02:52:43.405Z,99.99
2022-11-24T02:53:43.935Z,99.99
2022-11-24T02:54:44.122Z,99.99
2022-11-24T02:55:44.305Z,99.99
2022-11-24T02:56:44.960Z,99.99
2022-11-24T02:57:45.572Z,99.99
2022-11-24T02:58:46.053Z,99.99
2022-11-24T02:59:46.559Z,99.99
2022-11-24T03:00:47.560Z,99.99
2022-11-24T03:01:48.599Z,99.99
2022-11-24T03:02:48.782Z,99.99
2022-11-24T03:03:49.000Z,99.99
2022-11-24T03:04:49.636Z,99.99
2022-11-24T03:05:49.543Z,99.99
2022-11-24T03:06:50.030Z,99.99
2022-11-24T03:07:50.376Z,99.99
2022-11-24T03:08:50.821Z,99.99
2022-11-24T03:09:52.127Z,99.99
2022-11-24T03:10:52.549Z,99.99
2022-11-24T03:11:52.453Z,99.99
2022-11-24T03:12:53.092Z,99.99
2022-11-24T03:13:54.028Z,99.99
2022-11-24T03:14:54.671Z,99.99
2022-11-24T03:15:55.902Z,99.99
2022-11-24T03:16:56.094Z,99.99
2022-11-24T03:17:57.022Z,99.99
2022-11-24T03:18:57.971Z,99.99
2022-11-24T03:20:03.076Z,99.99
2022-11-24T03:20:58.869Z,99.99
2022-11-24T03:22:00.093Z,99.99
2022-11-24T03:23:00.700Z,99.99
2022-11-24T03:24:00.934Z,99.99
2022-11-24T03:25:01.841Z,99.99
2022-11-24T03:26:02.765Z,99.99
2022-11-24T03:27:03.975Z,99.99
2022-11-24T03:28:03.860Z,99.99
2022-11-24T03:29:04.514Z,99.99
2022-11-24T03:30:05.019Z,99.99
2022-11-24T03:31:05.751Z,99.99
2022-11-24T03:32:05.886Z,99.99
2022-11-24T03:33:06.506Z,99.99
2022-11-24T03:34:07.431Z,99.99
2022-11-24T03:35:07.620Z,99.99
2022-11-24T03:36:08.531Z,99.99
2022-11-24T03:37:08.752Z,99.99
2022-11-24T03:38:09.402Z,99.99
2022-11-24T03:39:10.449Z,99.99
2022-11-24T03:40:10.863Z,99.99
2022-11-24T03:41:11.304Z,99.99
2022-11-24T03:42:12.211Z,99.99
2022-11-24T03:43:12.149Z,99.99
2022-11-24T03:44:12.742Z,99.99
2022-11-24T03:45:50.858Z,99.99
2022-11-24T03:46:14.667Z,99.99
2022-11-24T03:47:14.957Z,99.99
2022-11-24T03:48:15.583Z,99.99
2022-11-24T03:49:15.801Z,99.99
2022-11-24T03:50:15.999Z,99.99
2022-11-24T03:51:16.406Z,99.99
2022-11-24T03:52:16.740Z,99.99
2022-11-24T03:53:17.932Z,99.99
2022-11-24T03:54:18.474Z,99.99
2022-11-24T03:55:18.660Z,99.99
2022-11-24T03:56:18.845Z,99.99
2022-11-24T03:57:19.477Z,99.99
2022-11-24T03:58:20.081Z,99.99
2022-11-24T03:59:20.269Z,99.99
2022-11-24T04:00:21.458Z,99.99
2022-11-24T04:01:22.620Z,99.99
2022-11-24T04:02:23.394Z,99.99
2022-11-24T04:03:23.818Z,99.99
2022-11-24T04:04:24.772Z,99.99
2022-11-24T04:05:24.955Z,99.99
2022-11-24T04:06:25.580Z,99.99
2022-11-24T04:07:26.191Z,99.99
2022-11-24T04:08:26.757Z,99.99
2022-11-24T04:09:26.985Z,99.99
2022-11-24T04:10:28.177Z,99.99
2022-11-24T04:11:28.155Z,99.99
2022-11-24T04:12:28.769Z,99.99
2022-11-24T04:13:28.957Z,99.99
2022-11-24T04:14:29.445Z,99.99
2022-11-24T04:15:30.165Z,99.99
2022-11-24T04:16:30.449Z,99.99
2022-11-24T04:17:30.799Z,99.99
2022-11-24T04:18:31.037Z,99.99
2022-11-24T04:19:31.960Z,99.99
2022-11-24T04:20:32.446Z,99.99
2022-11-24T04:21:33.024Z,99.99
2022-11-24T04:22:33.070Z,99.99
2022-11-24T04:23:33.976Z,99.99
2022-11-24T04:24:34.155Z,99.99
2022-11-24T04:25:35.037Z,99.99
2022-11-24T04:26:35.618Z,99.99
2022-11-24T04:27:36.266Z,99.99
2022-11-24T04:28:36.875Z,99.99
2022-11-24T04:29:37.485Z,99.99
2022-11-24T04:30:38.693Z,99.99
2022-11-24T04:31:39.094Z,99.99
2022-11-24T04:32:39.393Z,99.99
2022-11-24T04:33:40.293Z,99.99
2022-11-24T04:34:41.832Z,99.99
2022-11-24T04:35:42.042Z,99.99
2022-11-24T04:36:41.950Z,99.99
2022-11-24T04:37:43.141Z,99.99
2022-11-24T04:39:29.053Z,99.99
2022-11-24T04:39:46.074Z,99.99
2022-11-24T04:40:46.982Z,99.99
2022-11-24T04:41:46.995Z,99.99
2022-11-24T04:42:48.179Z,99.99
2022-11-24T04:43:48.812Z,99.99
2022-11-24T04:44:49.018Z,99.99
2022-11-24T04:45:49.356Z,99.99
2022-11-24T04:46:49.858Z,99.99
2022-11-24T04:47:51.019Z,99.99
2022-11-24T04:48:50.928Z,99.99
2022-11-24T04:49:51.575Z,99.99
2022-11-24T04:50:52.488Z,99.99
2022-11-24T04:51:53.488Z,99.99
2022-11-24T04:52:54.144Z,99.99
2022-11-24T04:53:54.348Z,99.99
2022-11-24T04:54:55.281Z,99.99
2022-11-24T04:55:55.549Z,99.99
2022-11-24T04:56:56.460Z,99.99
2022-11-24T04:57:56.793Z,99.99
2022-11-24T04:58:57.421Z,99.99
2022-11-24T04:59:58.494Z,99.99
2022-11-24T05:00:59.121Z,99.99
2022-11-24T05:02:00.186Z,99.99
2022-11-24T05:03:00.433Z,99.99
2022-11-24T05:04:01.201Z,99.99
2022-11-24T05:05:02.413Z,99.99
2022-11-24T05:06:02.646Z,99.99
2022-11-24T05:07:02.849Z,99.99
2022-11-24T05:08:03.123Z,99.99
2022-11-24T05:09:03.501Z,99.99
2022-11-24T05:10:05.218Z,99.99
2022-11-24T05:11:04.591Z,99.99
2022-11-24T05:12:05.003Z,99.99
2022-11-24T05:13:05.649Z,99.99
2022-11-24T05:14:06.136Z,99.99
2022-11-24T05:15:06.348Z,99.99
2022-11-24T05:16:06.692Z,99.99
2022-11-24T05:17:07.095Z,99.99
2022-11-24T05:18:07.970Z,99.99
2022-11-24T05:19:08.292Z,99.99
2022-11-24T05:20:09.504Z,99.99
2022-11-24T05:21:10.419Z,99.99
2022-11-24T05:22:11.455Z,99.99
2022-11-24T05:23:12.341Z,99.99
2022-11-24T05:24:12.980Z,99.99
2022-11-24T05:25:13.868Z,99.99
2022-11-24T05:26:14.122Z,99.99
2022-11-24T05:27:14.730Z,99.99
2022-11-24T05:28:15.623Z,99.99
2022-11-24T05:29:16.234Z,99.99
2022-11-24T05:30:16.729Z,99.99
2022-11-24T05:31:17.799Z,99.99
2022-11-24T05:32:18.402Z,99.99
2022-11-24T05:33:19.620Z,99.99
2022-11-24T05:34:20.530Z,99.99
2022-11-24T05:35:21.084Z,99.99
2022-11-24T05:36:22.001Z,99.99
2022-11-24T05:37:22.324Z,99.99
2022-11-24T05:38:23.506Z,99.99
2022-11-24T05:39:23.993Z,99.99
2022-11-24T05:40:24.911Z,99.99
2022-11-24T05:41:25.174Z,99.99
2022-11-24T05:42:26.483Z,99.99
2022-11-24T05:43:27.138Z,99.99
2022-11-24T05:44:27.463Z,99.99
2022-11-24T05:45:27.829Z,99.99
2022-11-24T05:46:28.213Z,99.99
2022-11-24T05:47:28.386Z,99.99
2022-11-24T05:48:29.575Z,99.99
2022-11-24T05:49:29.777Z,99.99
2022-11-24T05:50:30.427Z,99.99
2022-11-24T05:51:30.907Z,99.99
2022-11-24T05:52:31.468Z,99.99
2022-11-24T05:53:31.690Z,99.99
2022-11-24T05:54:32.087Z,99.99
2022-11-24T05:55:32.654Z,99.99
2022-11-24T05:56:32.894Z,99.99
2022-11-24T05:57:33.072Z,99.99
2022-11-24T05:58:33.982Z,99.99
2022-11-24T05:59:35.173Z,99.99
2022-11-24T06:00:36.082Z,99.99
2022-11-24T06:01:37.002Z,99.99
2022-11-24T06:02:37.491Z,99.99
2022-11-24T06:03:37.313Z,99.99
2022-11-24T06:04:38.955Z,99.99
2022-11-24T06:05:38.911Z,99.99
2022-11-24T06:06:39.252Z,99.99
2022-11-24T06:07:39.920Z,99.99
2022-11-24T06:08:40.517Z,99.99
2022-11-24T06:09:41.418Z,99.99
2022-11-24T06:10:41.630Z,99.99
2022-11-24T06:11:42.163Z,99.99
2022-11-24T06:12:42.478Z,99.99
2022-11-24T06:13:42.769Z,99.99
2022-11-24T06:14:43.125Z,99.99
2022-11-24T06:15:44.323Z,99.99
2022-11-24T06:16:44.415Z,99.99
2022-11-24T06:17:45.033Z,99.99
2022-11-24T06:18:45.211Z,99.99
2022-11-24T06:19:47.771Z,99.99
2022-11-24T06:21:09.440Z,99.99
2022-11-24T06:21:46.515Z,99.99
2022-11-24T06:22:47.568Z,99.99
2022-11-24T06:23:48.495Z,99.99
2022-11-24T06:24:49.092Z,99.99
2022-11-24T06:25:55.336Z,99.99
2022-11-24T06:26:50.810Z,99.99
2022-11-24T06:27:51.024Z,99.99
2022-11-24T06:28:51.660Z,99.99
2022-11-24T06:29:52.173Z,99.99
2022-11-24T06:30:52.136Z,99.99
2022-11-24T06:31:53.508Z,99.99
2022-11-24T06:32:55.586Z,99.99
2022-11-24T06:33:55.070Z,99.99
2022-11-24T06:34:55.713Z,99.99
2022-11-24T06:35:56.347Z,99.99
2022-11-24T06:36:56.549Z,99.99
2022-11-24T06:37:56.864Z,99.99
2022-11-24T06:38:57.500Z,99.99
2022-11-24T06:39:57.840Z,99.99
2022-11-24T06:40:57.784Z,99.99
2022-11-24T06:41:58.025Z,99.99
2022-11-24T06:42:58.780Z,99.99
2022-11-24T06:43:59.268Z,99.99
2022-11-24T06:45:00.314Z,99.99
2022-11-24T06:46:00.352Z,99.99
2022-11-24T06:47:00.767Z,99.99
2022-11-24T06:48:00.984Z,99.99
2022-11-24T06:49:01.881Z,99.99
2022-11-24T06:50:02.789Z,99.99
2022-11-24T06:51:03.754Z,99.99
2022-11-24T06:52:03.959Z,99.99
2022-11-24T06:53:04.684Z,99.99
2022-11-24T06:54:04.893Z,99.99
2022-11-24T06:55:05.141Z,99.99
2022-11-24T06:56:06.133Z,99.99
2022-11-24T06:57:06.341Z,99.99
2022-11-24T06:58:06.960Z,99.99
2022-11-24T06:59:07.175Z,99.99
2022-11-24T07:00:08.091Z,99.99
2022-11-24T07:01:09.097Z,99.99
2022-11-24T07:02:09.591Z,99.99
2022-11-24T07:03:09.842Z,99.99
2022-11-24T07:04:10.317Z,99.99
2022-11-24T07:05:10.958Z,99.99
2022-11-24T07:06:11.162Z,99.99
2022-11-24T07:07:11.880Z,99.99
2022-11-24T07:08:17.529Z,99.99
2022-11-24T07:09:12.629Z,99.99
2022-11-24T07:10:13.888Z,99.99
2022-11-24T07:11:14.098Z,99.99
2022-11-24T07:12:14.524Z,99.99
2022-11-24T07:13:15.124Z,99.99
2022-11-24T07:14:16.060Z,99.99
2022-11-24T07:15:16.258Z,99.99
2022-11-24T07:16:16.336Z,99.99
2022-11-24T07:17:16.766Z,99.99
2022-11-24T07:18:17.413Z,99.99
2022-11-24T07:19:21.649Z,99.99
2022-11-24T07:20:18.139Z,99.99
2022-11-24T07:21:18.872Z,99.99
2022-11-24T07:22:19.794Z,99.99
2022-11-24T07:23:20.135Z,99.99
2022-11-24T07:24:20.786Z,99.99
2022-11-24T07:25:21.865Z,99.99
2022-11-24T07:26:21.763Z,99.99
2022-11-24T07:27:22.714Z,99.99
2022-11-24T07:28:23.966Z,99.99
2022-11-24T07:29:24.880Z,99.99
2022-11-24T07:30:25.074Z,99.99
2022-11-24T07:31:26.234Z,99.99
2022-11-24T07:32:26.316Z,99.99
2022-11-24T07:33:27.305Z,99.99
2022-11-24T07:34:27.513Z,99.99
2022-11-24T07:35:28.185Z,99.99
2022-11-24T07:36:29.445Z,99.99
2022-11-24T07:37:36.335Z,99.99
2022-11-24T07:38:30.252Z,99.99
2022-11-24T07:39:30.626Z,99.16
2022-11-24T07:40:31.550Z,96.5
2022-11-24T07:41:31.879Z,94.93
2022-11-24T07:42:33.110Z,93.79
2022-11-24T07:43:33.756Z,93.7
2022-11-24T07:44:34.810Z,92.36
2022-11-24T07:45:35.606Z,92.36
2022-11-24T07:46:35.836Z,92.65
2022-11-24T07:47:37.036Z,92.94
2022-11-24T07:48:36.982Z,92.65
2022-11-24T07:49:37.184Z,92.84
2022-11-24T07:50:37.385Z,93.51
2022-11-24T07:51:38.402Z,93.79
2022-11-24T07:52:38.893Z,92.7
2022-11-24T07:53:39.319Z,93.37
2022-11-24T07:54:40.939Z,93.74
2022-11-24T07:55:40.866Z,93.55
2022-11-24T07:56:41.495Z,93.94
2022-11-24T07:57:41.569Z,94.27
2022-11-24T07:58:41.842Z,93.74
2022-11-24T07:59:42.079Z,93.08
2022-11-24T08:00:43.003Z,93.98
2022-11-24T08:01:43.652Z,94.08
2022-11-24T08:02:43.503Z,95.03
2022-11-24T08:03:44.546Z,95.51
2022-11-24T08:04:44.590Z,95.79
2022-11-24T08:06:24.368Z,96.26
2022-11-24T08:06:58.299Z,96.6
2022-11-24T08:07:58.734Z,97.55
2022-11-24T08:08:58.430Z,97.93
2022-11-24T08:09:58.784Z,98.41
2022-11-24T08:10:59.703Z,98.79
2022-11-24T08:12:00.215Z,98.6
2022-11-24T08:13:00.246Z,97.98
2022-11-24T08:14:00.926Z,96.84
2022-11-24T08:15:02.515Z,95.6
2022-11-24T08:16:01.206Z,94.6
2022-11-24T08:17:02.371Z,93.65
2022-11-24T08:18:02.635Z,92.18
2022-11-24T08:19:03.631Z,91.6
2022-11-24T08:20:03.591Z,89.79
2022-11-24T08:21:04.534Z,89.41
2022-11-24T08:22:05.191Z,89.98
2022-11-24T08:23:05.301Z,91.41
2022-11-24T08:24:05.351Z,91.6
2022-11-24T08:25:06.297Z,91.03
2022-11-24T08:26:06.531Z,91.75
2022-11-24T08:27:07.472Z,92.7
2022-11-24T08:28:07.412Z,93.18
2022-11-24T08:29:08.481Z,92.7
2022-11-24T08:30:08.701Z,92.6
2022-11-24T08:31:09.181Z,91.75
2022-11-24T08:32:10.371Z,91.6
2022-11-24T08:33:10.343Z,90.17
2022-11-24T08:34:11.124Z,90.56
2022-11-24T08:35:21.868Z,91.22
2022-11-24T08:36:12.796Z,91.13
2022-11-24T08:37:13.728Z,90.46
2022-11-24T08:38:13.928Z,89.79
2022-11-24T08:39:15.125Z,88.75
2022-11-24T08:40:15.375Z,88.18
2022-11-24T08:41:15.871Z,88.84
2022-11-24T08:42:15.845Z,87.79
2022-11-24T08:43:17.085Z,87.89
2022-11-24T08:44:17.771Z,88.37
2022-11-24T08:45:26.293Z,88.84
2022-11-24T08:46:19.364Z,88.37
2022-11-24T08:47:19.523Z,87.98
2022-11-24T08:48:20.752Z,89.13
2022-11-24T08:49:20.893Z,89.13
2022-11-24T08:50:20.829Z,88.56
2022-11-24T08:51:21.052Z,88.46
2022-11-24T08:52:22.061Z,88.27
2022-11-24T08:53:22.286Z,88.56
2022-11-24T08:54:22.776Z,87.89
2022-11-24T08:55:22.883Z,87.51
2022-11-24T08:56:23.112Z,88.08
2022-11-24T08:57:27.342Z,88.37
2022-11-24T08:58:23.869Z,88.08
2022-11-24T08:59:24.462Z,87.32
2022-11-24T09:00:25.651Z,86.55
2022-11-24T09:01:26.169Z,86.75
2022-11-24T09:02:26.209Z,88.08
2022-11-24T09:03:27.193Z,86.84
2022-11-24T09:04:27.795Z,86.65
2022-11-24T09:05:56.309Z,87.23
2022-11-24T09:06:28.824Z,87.23
2022-11-24T09:07:29.730Z,85.89
2022-11-24T09:08:29.736Z,86.36
2022-11-24T09:09:30.673Z,86.27
2022-11-24T09:10:32.058Z,87.7
2022-11-24T09:11:32.248Z,88.84
2022-11-24T09:12:32.483Z,88.65
2022-11-24T09:13:33.122Z,88.37
2022-11-24T09:14:33.412Z,87.23
2022-11-24T09:15:33.908Z,85.7
2022-11-24T09:16:34.249Z,86.55
2022-11-24T09:17:34.369Z,86.27
2022-11-24T09:18:36.075Z,83.61
2022-11-24T09:19:35.631Z,83.89
2022-11-24T09:20:36.248Z,84.36
2022-11-24T09:21:37.168Z,84.94
2022-11-24T09:22:38.475Z,85.41
2022-11-24T09:23:38.698Z,84.46
2022-11-24T09:24:38.872Z,84.56
2022-11-24T09:25:39.725Z,84.27
2022-11-24T09:26:44.709Z,84.46
2022-11-24T09:27:41.053Z,85.32
2022-11-24T09:28:41.626Z,85.03
2022-11-24T09:29:42.223Z,84.65
2022-11-24T09:30:43.396Z,84.94
2022-11-24T09:31:43.958Z,85.89
2022-11-24T09:32:45.158Z,86.46
2022-11-24T09:33:46.063Z,86.75
2022-11-24T09:34:46.393Z,87.03
2022-11-24T09:35:47.592Z,88.56
2022-11-24T09:36:47.792Z,88.75
2022-11-24T09:37:48.730Z,88.56
2022-11-24T09:38:48.678Z,88.37
2022-11-24T09:39:48.830Z,88.32
2022-11-24T09:40:49.353Z,88.89
2022-11-24T09:41:49.993Z,88.79
2022-11-24T09:42:56.114Z,88.04
2022-11-24T09:43:50.630Z,88.6
2022-11-24T09:44:51.336Z,87.18
2022-11-24T09:46:10.509Z,86.51
2022-11-24T09:46:52.518Z,85.94
2022-11-24T09:47:53.326Z,85.75
2022-11-24T09:48:53.555Z,86.7
2022-11-24T09:49:56.806Z,87.85
2022-11-24T09:50:54.771Z,89.08
2022-11-24T09:51:55.421Z,90.13
2022-11-24T09:52:55.926Z,90.51
2022-11-24T09:53:56.022Z,90.8
2022-11-24T09:54:56.327Z,90.61
2022-11-24T09:55:56.654Z,90.18
2022-11-24T09:56:57.158Z,89.61
2022-11-24T09:57:57.667Z,89.14
2022-11-24T09:58:58.331Z,88.18
2022-11-24T09:59:58.919Z,88.46
2022-11-24T10:00:59.297Z,90.56
2022-11-24T10:01:59.931Z,91.8
2022-11-24T10:03:00.087Z,93.13
2022-11-24T10:04:05.874Z,95.12
2022-11-24T10:05:01.532Z,96.26
2022-11-24T10:06:01.783Z,97.5
2022-11-24T10:07:02.725Z,98.17
2022-11-24T10:08:03.863Z,98.27
2022-11-24T10:09:04.061Z,98.69
2022-11-24T10:10:04.699Z,99.16
2022-11-24T10:11:05.970Z,99.36
2022-11-24T10:12:06.201Z,99.93
2022-11-24T10:13:06.411Z,99.99
2022-11-24T10:14:06.630Z,99.99
2022-11-24T10:15:06.784Z,99.99
2022-11-24T10:16:07.563Z,99.99
2022-11-24T10:17:07.686Z,99.99
2022-11-24T10:18:11.872Z,99.99
2022-11-24T10:19:08.297Z,99.99
2022-11-24T10:20:08.247Z,99.99
2022-11-24T10:21:09.440Z,99.99
2022-11-24T10:22:09.926Z,99.99
2022-11-24T10:23:10.866Z,99.99
2022-11-24T10:24:10.845Z,99.99
2022-11-24T10:25:12.188Z,99.99
2022-11-24T10:26:12.682Z,99.99
2022-11-24T10:27:12.885Z,99.99
2022-11-24T10:28:13.798Z,99.99
2022-11-24T10:29:14.298Z,99.99
2022-11-24T10:30:14.864Z,99.99
2022-11-24T10:31:15.516Z,99.99
2022-11-24T10:32:15.759Z,99.99
2022-11-24T10:33:16.402Z,99.99
2022-11-24T10:34:17.043Z,99.99
2022-11-24T10:35:17.429Z,99.99
2022-11-24T10:36:17.924Z,99.99
2022-11-24T10:37:18.868Z,99.99
2022-11-24T10:38:19.115Z,99.99
2022-11-24T10:39:19.338Z,99.99
2022-11-24T10:40:56.784Z,99.99
2022-11-24T10:41:19.366Z,99.99
2022-11-24T10:42:19.715Z,99.99
2022-11-24T10:43:20.431Z,99.99
2022-11-24T10:44:21.064Z,99.99
2022-11-24T10:45:21.212Z,99.99
2022-11-24T10:46:22.031Z,99.99
2022-11-24T10:47:23.089Z,99.99
2022-11-24T10:48:23.437Z,99.99
2022-11-24T10:49:24.379Z,99.99
2022-11-24T10:50:25.425Z,99.98
2022-11-24T10:51:25.636Z,98.98
2022-11-24T10:52:26.324Z,98.98
2022-11-24T10:53:26.566Z,99.08
2022-11-24T10:54:27.508Z,98.88
2022-11-24T10:55:27.926Z,98.79
2022-11-24T10:56:28.870Z,98.98
2022-11-24T10:57:29.615Z,99.55
2022-11-24T10:58:35.994Z,98.98
2022-11-24T10:59:31.920Z,98.13
2022-11-24T11:00:32.356Z,97.55
2022-11-24T11:01:33.516Z,97.17
2022-11-24T11:02:34.522Z,95.65
2022-11-24T11:03:34.851Z,94.79
2022-11-24T11:04:35.814Z,94.51
2022-11-24T11:05:36.957Z,93.74
2022-11-24T11:06:36.916Z,93.84
2022-11-24T11:07:37.982Z,93.94
2022-11-24T11:08:38.468Z,94.03
2022-11-24T11:09:38.907Z,93.46
2022-11-24T11:10:38.534Z,93.46
2022-11-24T11:11:38.744Z,93.37
2022-11-24T11:12:49.546Z,92.7
2022-11-24T11:13:39.751Z,92.32
2022-11-24T11:14:40.794Z,91.37
2022-11-24T11:15:42.014Z,91.46
2022-11-24T11:16:42.772Z,91.46
2022-11-24T11:17:43.266Z,91.27
2022-11-24T11:18:43.479Z,91.75
2022-11-24T11:20:00.208Z,92.51
2022-11-24T11:20:44.231Z,92.13
2022-11-24T11:21:45.477Z,92.32
2022-11-24T11:22:45.732Z,91.94
2022-11-24T11:23:46.422Z,91.84
2022-11-24T11:24:47.078Z,92.03
2022-11-24T11:25:47.693Z,92.13
2022-11-24T11:26:48.332Z,92.6
2022-11-24T11:27:49.596Z,92.7
2022-11-24T11:28:50.266Z,92.89
2022-11-24T11:31:38.443Z,92.6
2022-11-24T11:34:30.706Z,94.32
2022-11-24T11:35:23.347Z,94.13
2022-11-24T11:36:23.292Z,93.94
2022-11-24T11:37:23.777Z,95.08
2022-11-24T11:38:24.535Z,95.75
2022-11-24T11:39:25.521Z,96.03
2022-11-24T11:40:25.713Z,95.79
2022-11-24T11:41:25.635Z,96.74
2022-11-24T11:43:03.166Z,97.13
2022-11-24T11:43:26.838Z,97.13
2022-11-24T11:44:27.871Z,96.31
2022-11-24T11:45:28.412Z,96.31
2022-11-24T11:46:29.039Z,97.08
2022-11-24T11:47:29.542Z,96.74
2022-11-24T11:48:33.701Z,95.32
2022-11-24T11:49:30.955Z,95.6
2022-11-24T11:50:31.251Z,96.08
2022-11-24T11:51:33.220Z,97.31
2022-11-24T11:52:33.345Z,98.08
2022-11-24T11:53:34.563Z,97.5
2022-11-24T11:54:35.234Z,97.13
2022-11-24T11:55:35.015Z,97.6
2022-11-24T11:56:35.173Z,97.6
2022-11-24T11:57:35.670Z,97.5
2022-11-24T11:58:36.260Z,96.94
2022-11-24T11:59:36.480Z,95.89
2022-11-24T12:00:36.980Z,96.94
2022-11-24T12:01:37.034Z,96.74
2022-11-24T12:02:37.555Z,97.31
2022-11-24T12:03:38.192Z,97.13
2022-11-24T12:04:39.488Z,96.74
2022-11-24T12:05:39.701Z,96.94
2022-11-24T12:06:40.927Z,96.08
2022-11-24T12:07:42.180Z,95.7
2022-11-24T12:09:20.900Z,94.18
2022-11-24T12:09:43.808Z,94.27
2022-11-24T12:10:44.356Z,93.7
2022-11-24T12:11:44.413Z,92.65
2022-11-24T12:12:44.905Z,93.37
2022-11-24T12:13:45.835Z,93.27
2022-11-24T12:14:46.509Z,94.7
2022-11-24T12:15:48.092Z,94.51
2022-11-24T12:16:47.981Z,93.94
2022-11-24T12:17:48.575Z,94.7
2022-11-24T12:19:05.824Z,94.03
2022-11-24T12:20:05.754Z,92.89
2022-11-24T12:21:06.342Z,91.27
2022-11-24T12:22:07.396Z,90.8
2022-11-24T12:23:08.013Z,90.51
2022-11-24T12:24:08.227Z,91.17
2022-11-24T12:25:08.677Z,91.56
2022-11-24T12:26:09.586Z,91.27
2022-11-24T12:27:09.794Z,91.65
2022-11-24T12:28:10.212Z,91.46
2022-11-24T12:29:11.566Z,90.99
2022-11-24T12:30:11.897Z,92.03
2022-11-24T12:31:12.945Z,90.51
2022-11-24T12:32:13.413Z,90.7
2022-11-24T12:33:13.277Z,90.8
2022-11-24T12:34:14.224Z,90.89
2022-11-24T12:35:14.146Z,90.51
2022-11-24T12:36:15.358Z,89.94
2022-11-24T12:37:15.636Z,90.32
2022-11-24T12:38:16.824Z,90.22
2022-11-24T12:39:17.817Z,90.32
2022-11-24T12:40:18.059Z,90.8
2022-11-24T12:41:47.603Z,90.7
2022-11-24T12:42:18.530Z,91.46
2022-11-24T12:43:19.491Z,90.51
2022-11-24T12:44:19.709Z,90.22
2022-11-24T12:45:19.961Z,90.13
2022-11-24T12:46:22.833Z,90.42
2022-11-24T12:47:20.490Z,90.89
2022-11-24T12:48:21.030Z,90.8
2022-11-24T12:49:21.681Z,89.37
2022-11-24T12:50:22.663Z,89.75
2022-11-24T12:51:23.169Z,90.65
2022-11-24T12:52:23.549Z,89.89
2022-11-24T12:53:24.003Z,89.51
2022-11-24T12:54:24.506Z,90.27
2022-11-24T12:55:24.729Z,90.17
2022-11-24T12:56:24.827Z,90.27
2022-11-24T12:57:25.446Z,90.65
2022-11-24T12:58:25.947Z,90.27
2022-11-24T12:59:26.677Z,90.27
2022-11-24T13:00:27.661Z,89.79
2022-11-24T13:01:28.766Z,88.75
2022-11-24T13:02:29.054Z,88.42
2022-11-24T13:03:29.204Z,88.51
2022-11-24T13:04:29.435Z,89.08
2022-11-24T13:05:29.590Z,88.93
2022-11-24T13:06:29.493Z,89.41